»·PEaware :: AAL394 KDFW-KTUL

AAL394 :: KDFW-KTUL

FLIGHT INFORMATION

Flight Status: Arrived
Operator:
American Airlines
More flights by this operator :: More flights under this callsign
Pilot: John H. (7647)
Aircraft: BOEING 737-800
(B738)
More flights by this aircraft type
Origin: KDFW Dallas-Ft Worth Intl
United States
Destination: KTUL Tulsa Intl
United States
More flights between these airports :: More routes between these airports
Route: TEX5 EAKER TUL
File this flight plan on PilotEdge
Remarks: PBN / A1B1C1D1S1S2 DOF / 180929 REG / N806SB EET / KZKC0039 OPR / AAL PER / C RMK / TCAS SIMBRIEF
Altitude:
(Current/Filed)
31,000ft
Speed:
(Current/Filed)
466kts
Departed: 29-Sep-18 09:48 AM
Arrived: 29-Sep-18 10:32 AM
Distance/Time
Traveled:
207nm/0:44
Distance/Time
To Go:
Arrived

Flight Plot

Page will automatically refresh every two minutes.

Flight plan parsing failed; only flown route is shown


Map Options




Map Legend


Flown Route
Filed Route
Departure Airport
Arrival Airport
Navaid (VOR, NDB)
Fix

Horizontal Profiles

Position Reports

Time Latitude Longitude Heading Altitude Ground
Speed
29-Sep-18 09:31 32.900051 -97.045737 150 603ft 0kts
29-Sep-18 09:32 32.900051 -97.045737 150 603ft 0kts
29-Sep-18 09:33 32.900051 -97.045737 150 603ft 0kts
29-Sep-18 09:34 32.900051 -97.045737 150 603ft 0kts
29-Sep-18 09:35 32.900051 -97.045737 150 603ft 0kts
29-Sep-18 09:36 32.900176 -97.045828 148 603ft 2kts
29-Sep-18 09:37 32.900719 -97.045747 231 603ft 2kts
29-Sep-18 09:38 32.900811 -97.045376 270 602ft 0kts
29-Sep-18 09:39 32.900811 -97.045376 270 602ft 0kts
29-Sep-18 09:40 32.900811 -97.045376 270 602ft 0kts
29-Sep-18 09:41 32.900814 -97.045552 271 602ft 2kts
29-Sep-18 09:42 32.901026 -97.047368 284 606ft 8kts
29-Sep-18 09:43 32.901177 -97.051212 270 616ft 13kts
29-Sep-18 09:44 32.900968 -97.057617 225 611ft 26kts
29-Sep-18 09:45 32.892478 -97.057934 181 591ft 35kts
29-Sep-18 09:46 32.894103 -97.063099 310 580ft 29kts
29-Sep-18 09:47 32.899438 -97.070157 320 577ft 34kts
29-Sep-18 09:48 32.906242 -97.077132 319 596ft 32kts
29-Sep-18 09:49 32.909277 -97.082802 147 600ft 15kts
29-Sep-18 09:50 32.892671 -97.065604 137 836ft 151kts
29-Sep-18 09:51 32.851106 -97.054813 188 2336ft 174kts
29-Sep-18 09:52 32.821550 -97.085426 280 4075ft 169kts
29-Sep-18 09:53 32.849955 -97.129890 312 5450ft 175kts
29-Sep-18 09:54 32.889136 -97.176258 344 5985ft 237kts
29-Sep-18 09:55 32.958950 -97.152777 19 7541ft 283kts
29-Sep-18 09:56 33.035825 -97.122815 19 9741ft 302kts
29-Sep-18 09:57 33.119105 -97.090593 18 11362ft 337kts
29-Sep-18 09:58 33.209618 -97.055548 18 13418ft 351kts
29-Sep-18 09:59 33.303920 -97.018906 17 15345ft 364kts
29-Sep-18 10:00 33.401068 -96.981098 17 17230ft 373kts
29-Sep-18 10:01 33.501272 -96.941994 16 18878ft 386kts
29-Sep-18 10:02 33.603239 -96.902089 16 20503ft 394kts
29-Sep-18 10:03 33.707981 -96.861012 16 22022ft 402kts
29-Sep-18 10:04 33.814806 -96.819029 16 23436ft 410kts
29-Sep-18 10:05 33.923670 -96.776078 16 24731ft 418kts
29-Sep-18 10:06 34.034635 -96.732183 16 25926ft 425kts
29-Sep-18 10:07 34.143460 -96.689033 15 26997ft 432kts
29-Sep-18 10:08 34.257885 -96.643503 16 27215ft 434kts
29-Sep-18 10:09 34.374879 -96.595349 17 27207ft 457kts
29-Sep-18 10:10 34.495517 -96.542941 17 27220ft 474kts
29-Sep-18 10:11 34.614014 -96.491351 17 27214ft 466kts
29-Sep-18 10:12 34.735739 -96.438231 17 27192ft 464kts
29-Sep-18 10:13 34.854058 -96.386505 18 24994ft 447kts
29-Sep-18 10:14 34.966374 -96.337203 19 22951ft 429kts
29-Sep-18 10:15 35.076507 -96.288836 19 20991ft 419kts
29-Sep-18 10:16 35.182173 -96.242193 19 19157ft 413kts
29-Sep-18 10:17 35.288194 -96.195308 19 17161ft 401kts
29-Sep-18 10:18 35.390187 -96.150064 19 15414ft 381kts
29-Sep-18 10:19 35.487388 -96.106818 19 13841ft 378kts
29-Sep-18 10:20 35.584837 -96.063379 20 12295ft 365kts
29-Sep-18 10:21 35.677405 -96.021996 20 10880ft 337kts
29-Sep-18 10:22 35.760536 -95.984791 20 9655ft 304kts
29-Sep-18 10:23 35.837779 -95.950143 21 8551ft 293kts
29-Sep-18 10:24 35.910841 -95.917260 20 7511ft 268kts
29-Sep-18 10:25 35.979609 -95.886168 20 6597ft 269kts
29-Sep-18 10:26 36.048800 -95.854932 20 5670ft 263kts
29-Sep-18 10:27 36.115865 -95.824617 20 4821ft 258kts
29-Sep-18 10:28 36.182654 -95.796907 4 4094ft 248kts
29-Sep-18 10:29 36.250790 -95.787011 17 4113ft 250kts
29-Sep-18 10:30 36.311633 -95.809862 303 3241ft 228kts
29-Sep-18 10:31 36.304387 -95.870408 202 2973ft 196kts
29-Sep-18 10:32 36.253827 -95.878150 182 2992ft 162kts
29-Sep-18 10:33 36.208926 -95.881072 170 1565ft 165kts
29-Sep-18 10:34 36.204782 -95.846536 59 622ft 0kts

Navigation Log

Ident Type
Flight plan parsing failed, navigation log unavailable